Fangst — LK6971 — position and weather

sailwx.info

Track history (hours):
 
Tides and Currents Weather Stations Pressure Air Temp Water Temp Dewpoint Dewpoint Depression Visibility Wind Speed Wind Dir Waves Ship Positions

Oceanographic research ship Fangst (Norway)

Detailed information on ship capabilities available from University of Delaware's Ocean Information Center and ARCUS's ALIAS (Arctic Logistics Information and Support) project.

Last reported at 2019-Apr-21 22:30 UTC. Time now 2019-Apr-21 22:41 UTC.
Position N 61°56' E 005°07'.

Length 14 m; draft 3 m.

Type: Fishing. MMSI: 257076840.

Date/timePositionNaut miles runAvg speedWind from/ knotsBaromVisibWave heightAir tempDewpointWater temp
2019-Apr-21 22:30N 61°56' E 005°07'0 0.0
2019-Apr-21 22:00N 61°56' E 005°07'0 0.0
2019-Apr-21 21:30N 61°56' E 005°07'0 0.0
2019-Apr-21 21:00N 61°56' E 005°07'0 0.0
2019-Apr-21 20:30N 61°56' E 005°07'0 0.0
2019-Apr-21 20:00N 61°56' E 005°07'0 0.0
2019-Apr-21 19:30N 61°56' E 005°07'0 0.0
2019-Apr-21 19:00N 61°56' E 005°07'0 0.0
2019-Apr-21 18:30N 61°56' E 005°07'0 0.0
2019-Apr-21 18:00N 61°56' E 005°07'0 0.0
2019-Apr-21 17:30N 61°56' E 005°07'0 0.0
2019-Apr-21 17:00N 61°56' E 005°07'0 0.0
2019-Apr-21 16:30N 61°56' E 005°07'0 0.0
2019-Apr-21 16:00N 61°56' E 005°07'0 0.0
2019-Apr-21 15:29N 61°56' E 005°07'2 4.5
2019-Apr-21 15:00N 61°58' E 005°09'4 7.0
2019-Apr-21 14:29N 62°01' E 005°13'4 7.1
2019-Apr-21 14:00N 62°04' E 005°15'0 0.8
2019-Apr-21 13:30N 62°05' E 005°15'1 3.0
2019-Apr-21 13:00N 62°06' E 005°14'1 2.1
2019-Apr-21 12:30N 62°06' E 005°11'1 1.5
2019-Apr-21 12:00N 62°06' E 005°10'1 2.5
2019-Apr-21 11:30N 62°06' E 005°07'1 2.7
2019-Apr-21 11:00N 62°07' E 005°05'3 5.7
2019-Apr-21 10:30N 62°10' E 005°05'1 2.6
2019-Apr-21 10:00N 62°11' E 005°05'3 5.7
2019-Apr-21 09:30N 62°13' E 005°09'3 6.1
2019-Apr-21 09:00N 62°15' E 005°14'3 5.9
2019-Apr-21 08:30N 62°17' E 005°20'3 6.3
2019-Apr-21 08:00N 62°18' E 005°26'3 6.6
2019-Apr-21 07:29N 62°19' E 005°32'3 5.8
2019-Apr-21 06:59N 62°21' E 005°38'0 0.2
2019-Apr-21 06:30N 62°21' E 005°38'0 0.0
2019-Apr-21 06:00N 62°21' E 005°38'0 0.0
2019-Apr-21 05:30N 62°21' E 005°38'0 0.0
2019-Apr-21 05:00N 62°21' E 005°38'0 0.0
2019-Apr-21 04:30N 62°21' E 005°38'0 0.0
2019-Apr-21 04:00N 62°21' E 005°38'0 0.0
2019-Apr-21 03:30N 62°21' E 005°38'0 0.0
2019-Apr-21 03:00N 62°21' E 005°38'0 0.0
2019-Apr-21 02:30N 62°21' E 005°38'0 0.0
2019-Apr-21 01:59N 62°21' E 005°38'0 0.0
2019-Apr-21 01:30N 62°21' E 005°38'0 0.0
2019-Apr-21 01:00N 62°21' E 005°38'0 0.0
2019-Apr-21 00:30N 62°21' E 005°38'0 0.0
2019-Apr-21 00:00N 62°21' E 005°38'0 0.0
2019-Apr-20 23:30N 62°21' E 005°38'0 0.0
2019-Apr-20 23:00N 62°21' E 005°38'0 0.0
2019-Apr-20 22:30N 62°21' E 005°38'0 0.0
2019-Apr-20 21:59N 62°21' E 005°38'0 0.0
2019-Apr-20 21:30N 62°21' E 005°38'0 0.0
2019-Apr-20 21:00N 62°21' E 005°38'0 0.0
2019-Apr-20 20:30N 62°21' E 005°38'0 0.0
2019-Apr-20 20:00N 62°21' E 005°38'0 0.0
2019-Apr-20 19:30N 62°21' E 005°38'0 0.0
2019-Apr-20 19:00N 62°21' E 005°38'0 0.0
2019-Apr-20 18:30N 62°21' E 005°38'0 0.0
2019-Apr-20 18:00N 62°21' E 005°38'0 0.0
2019-Apr-20 17:30N 62°21' E 005°38'0 0.0
2019-Apr-20 17:00N 62°21' E 005°38'0 0.0
2019-Apr-20 16:30N 62°21' E 005°38'0 0.0
2019-Apr-20 16:00N 62°21' E 005°38'0 0.0
2019-Apr-20 15:30N 62°21' E 005°38'2 3.9
2019-Apr-20 15:00N 62°22' E 005°41'2 4.9
2019-Apr-20 14:30N 62°24' E 005°39'0 0.1
2019-Apr-20 14:00N 62°24' E 005°39'3 5.1
2019-Apr-20 13:30N 62°26' E 005°42'2 4.7
2019-Apr-20 13:00N 62°28' E 005°46'2 4.3
2019-Apr-20 12:30N 62°29' E 005°49'2 4.5
2019-Apr-20 12:00N 62°31' E 005°53'2 4.6
2019-Apr-20 11:30N 62°33' E 005°57'1 1.4
2019-Apr-20 11:00N 62°33' E 005°57'1 2.7
2019-Apr-20 10:30N 62°33' E 005°60'1 2.2
2019-Apr-20 10:00N 62°34' E 005°60'2 3.1
2019-Apr-20 09:30N 62°36' E 006°02'1 1.1
2019-Apr-20 09:00N 62°36' E 006°02'3 5.1
2019-Apr-20 08:30N 62°38' E 006°05'2 3.6
2019-Apr-20 08:00N 62°39' E 006°08'1 1.7
2019-Apr-20 07:30N 62°40' E 006°10'3 5.9
2019-Apr-20 06:59N 62°38' E 006°15'3 6.4
2019-Apr-20 06:30N 62°38' E 006°22'3 6.7
2019-Apr-20 06:00N 62°41' E 006°26'3 6.9
2019-Apr-20 05:30N 62°44' E 006°29'3 6.3
2019-Apr-20 05:00N 62°47' E 006°29'0 0.7
2019-Apr-20 04:30N 62°47' E 006°28'0 0.0
2019-Apr-20 04:00N 62°47' E 006°28'0 0.0
2019-Apr-20 03:30N 62°47' E 006°28'0 0.0
2019-Apr-20 03:00N 62°47' E 006°28'0 0.0
2019-Apr-20 02:30N 62°47' E 006°28'0 0.0
2019-Apr-20 02:00N 62°47' E 006°28'0 0.0
2019-Apr-20 01:30N 62°47' E 006°28'0 0.0
2019-Apr-20 01:00N 62°47' E 006°28'0 0.0
2019-Apr-20 00:30N 62°47' E 006°28'0 0.0
2019-Apr-20 00:00N 62°47' E 006°28'0 0.0
2019-Apr-19 23:30N 62°47' E 006°28'0 0.0
2019-Apr-19 23:00N 62°47' E 006°28'0 0.0
2019-Apr-19 22:30N 62°47' E 006°28'0 0.0
2019-Apr-19 22:00N 62°47' E 006°28'0 0.0
2019-Apr-19 21:30N 62°47' E 006°28'0 0.0
2019-Apr-19 21:00N 62°47' E 006°28'0 0.0
2019-Apr-19 20:30N 62°47' E 006°28'0 0.2
2019-Apr-19 20:01N 62°47' E 006°29'3 6.9
2019-Apr-19 19:30N 62°48' E 006°36'4 7.4
2019-Apr-19 19:00N 62°51' E 006°41'4 7.1
2019-Apr-19 18:30N 62°54' E 006°45'4 7.2
2019-Apr-19 17:58N 62°57' E 006°50'3 6.8
2019-Apr-19 17:30N 62°60' E 006°55'3 6.5
2019-Apr-19 17:00N 63°02' E 007°00'3 6.7
2019-Apr-19 16:30N 63°04' E 007°06'3 6.5
2019-Apr-19 16:00N 63°06' E 007°11'2 3.7
2019-Apr-19 15:30N 63°06' E 007°15'0 0.3
2019-Apr-19 15:00N 63°06' E 007°15'1 2.6
2019-Apr-19 14:30N 63°06' E 007°18'1 1.1
2019-Apr-19 14:00N 63°06' E 007°19'3 6.7
2019-Apr-19 13:30N 63°02' E 007°19'2 4.0
2019-Apr-19 13:00N 63°02' E 007°15'1 2.0
2019-Apr-19 12:30N 63°01' E 007°13'3 6.9
2019-Apr-19 12:00N 63°00' E 007°06'4 7.1
2019-Apr-19 11:30N 62°58' E 006°60'4 7.0
2019-Apr-19 11:00N 62°55' E 006°55'3 6.1
2019-Apr-19 10:30N 62°52' E 006°57'4 7.1
2019-Apr-19 10:00N 62°49' E 006°58'5 7.5
2019-Apr-19 09:17N 62°43' E 006°59'2 7.4
2019-Apr-19 09:00N 62°43' E 007°03'3 5.4
2019-Apr-19 08:30N 62°44' E 007°09'0 0.0
2019-Apr-19 07:35N 62°44' E 007°09'0 0.0
2019-Apr-19 06:39N 62°44' E 007°09'0 0.0
2019-Apr-19 06:27N 62°44' E 007°09'0 0.0
2019-Apr-19 05:58N 62°44' E 007°09'0 0.0
2019-Apr-19 05:26N 62°44' E 007°09'0 0.0
2019-Apr-19 04:59N 62°44' E 007°09'0 0.0
2019-Apr-19 04:30N 62°44' E 007°09'0 0.0
2019-Apr-19 03:59N 62°44' E 007°09'0 0.0
2019-Apr-19 03:29N 62°44' E 007°09'0 0.0
2019-Apr-19 02:54N 62°44' E 007°09'0 0.0
2019-Apr-19 02:30N 62°44' E 007°09'0 0.0
2019-Apr-19 02:00N 62°44' E 007°09'0 0.0
2019-Apr-19 01:30N 62°44' E 007°09'0 0.0
2019-Apr-19 01:00N 62°44' E 007°09'0 0.0
2019-Apr-19 00:27N 62°44' E 007°09'0 0.0
2019-Apr-18 18:49N 62°44' E 007°09'0 0.0
2019-Apr-18 18:06N 62°44' E 007°09'0 0.0
2019-Apr-18 17:38N 62°44' E 007°09'0 0.0
2019-Apr-18 17:18N 62°44' E 007°09'0 0.0
2019-Apr-18 16:54N 62°44' E 007°09'0 0.0
2019-Apr-18 16:28N 62°44' E 007°09'0 0.0
2019-Apr-18 15:59N 62°44' E 007°09'0 0.0
2019-Apr-18 15:29N 62°44' E 007°09'0 0.0
2019-Apr-18 14:58N 62°44' E 007°09'0 0.0
2019-Apr-18 14:30N 62°44' E 007°09'0 0.0
2019-Apr-18 13:56N 62°44' E 007°09'0 0.0
2019-Apr-18 13:25N 62°44' E 007°09'0 0.0
2019-Apr-18 12:49N 62°44' E 007°09'0 0.0
2019-Apr-18 12:07N 62°44' E 007°09'0 0.0
2019-Apr-18 11:57N 62°44' E 007°09'0 0.0
2019-Apr-18 11:28N 62°44' E 007°09'0 0.0
2019-Apr-18 09:41N 62°44' E 007°09'0 0.0
2019-Apr-18 09:29N 62°44' E 007°09'0 0.0
2019-Apr-18 08:49N 62°44' E 007°09'0 0.0
2019-Apr-18 08:22N 62°44' E 007°09'0 0.0
2019-Apr-18 07:45N 62°44' E 007°09'0 0.0
2019-Apr-18 07:20N 62°44' E 007°09'0 0.0
2019-Apr-18 06:56N 62°44' E 007°09'0 0.0
2019-Apr-18 06:30N 62°44' E 007°09'0 0.0
2019-Apr-18 05:59N 62°44' E 007°09'0 0.0
2019-Apr-18 05:29N 62°44' E 007°09'0 0.0
2019-Apr-18 04:58N 62°44' E 007°09'0 0.0
2019-Apr-18 04:30N 62°44' E 007°09'0 0.0
2019-Apr-18 04:00N 62°44' E 007°09'0 0.0
2019-Apr-18 03:29N 62°44' E 007°09'0 0.0
2019-Apr-18 03:00N 62°44' E 007°09'0 0.0
2019-Apr-18 02:29N 62°44' E 007°09'0 0.0
2019-Apr-18 02:00N 62°44' E 007°09'0 0.0
2019-Apr-18 01:30N 62°44' E 007°09'0 0.0
2019-Apr-18 00:59N 62°44' E 007°09'0 0.0
2019-Apr-18 00:28N 62°44' E 007°09'0 0.0
2019-Apr-18 00:00N 62°44' E 007°09'0 0.0
2019-Apr-17 23:28N 62°44' E 007°09'0 0.0
2019-Apr-17 22:43N 62°44' E 007°09'0 0.0
2019-Apr-17 22:29N 62°44' E 007°09'0 0.0
2019-Apr-17 22:00N 62°44' E 007°09'0 0.0
2019-Apr-17 21:23N 62°44' E 007°09'0 0.0
2019-Apr-17 20:53N 62°44' E 007°09'0 0.0
2019-Apr-17 20:29N 62°44' E 007°09'0 0.0
2019-Apr-17 19:58N 62°44' E 007°09'0 0.0
2019-Apr-17 19:24N 62°44' E 007°09'0 0.0
2019-Apr-17 19:00N 62°44' E 007°09'0 0.0
2019-Apr-17 18:29N 62°44' E 007°09'0 0.0
2019-Apr-17 18:00N 62°44' E 007°09'0 0.0
2019-Apr-17 17:29N 62°44' E 007°09'0 0.0
2019-Apr-17 16:58N 62°44' E 007°09'0 0.0
2019-Apr-17 16:30N 62°44' E 007°09'0 0.0
2019-Apr-17 16:00N 62°44' E 007°09'0 0.0
2019-Apr-17 15:30N 62°44' E 007°09'0 0.0
2019-Apr-17 14:56N 62°44' E 007°09'0 0.0
2019-Apr-17 14:29N 62°44' E 007°09'0 0.0
2019-Apr-17 14:00N 62°44' E 007°09'0 0.0
2019-Apr-17 13:29N 62°44' E 007°09'0 0.0
2019-Apr-17 12:57N 62°44' E 007°09'0 0.0
2019-Apr-17 12:22N 62°44' E 007°09'0 0.0
2019-Apr-17 11:53N 62°44' E 007°09'0 0.0
2019-Apr-17 11:22N 62°44' E 007°09'0 0.0
2019-Apr-17 11:00N 62°44' E 007°09'0 0.0
2019-Apr-17 10:09N 62°44' E 007°09'0 0.0
2019-Apr-17 09:58N 62°44' E 007°09'0 0.0
2019-Apr-17 09:19N 62°44' E 007°09'0 0.0
2019-Apr-17 08:54N 62°44' E 007°09'0 0.0
2019-Apr-17 07:51N 62°44' E 007°09'0 0.0
2019-Apr-17 06:58N 62°44' E 007°09'0 0.0
2019-Apr-17 06:25N 62°44' E 007°09'0 0.0
2019-Apr-17 05:52N 62°44' E 007°09'0 0.0
2019-Apr-17 05:29N 62°44' E 007°09'0 0.0
2019-Apr-17 04:53N 62°44' E 007°09'0 0.0
2019-Apr-17 04:11N 62°44' E 007°09'0 0.0
2019-Apr-17 03:48N 62°44' E 007°09'0 0.0
2019-Apr-17 03:07N 62°44' E 007°09'0 0.0
2019-Apr-17 02:43N 62°44' E 007°09'0 0.0
2019-Apr-17 02:28N 62°44' E 007°09'0 0.0
2019-Apr-17 01:57N 62°44' E 007°09'0 0.0
2019-Apr-17 01:29N 62°44' E 007°09'0 0.0
2019-Apr-17 00:58N 62°44' E 007°09'0 0.0
2019-Apr-17 00:17N 62°44' E 007°09'0 0.0
2019-Apr-17 00:00N 62°44' E 007°09'0 0.0
2019-Apr-16 23:16N 62°44' E 007°09'0 0.0
2019-Apr-16 22:54N 62°44' E 007°09'0 0.0
2019-Apr-16 19:34N 62°44' E 007°09'0 0.0
2019-Apr-16 17:23N 62°44' E 007°09'0 0.0
2019-Apr-16 17:00N 62°44' E 007°09'0 0.0
2019-Apr-16 16:24N 62°44' E 007°09'0 0.0
2019-Apr-16 15:58N 62°44' E 007°09'0 0.0
2019-Apr-16 15:29N 62°44' E 007°09'0 0.0
2019-Apr-16 14:58N 62°44' E 007°09'0 0.0
2019-Apr-16 14:30N 62°44' E 007°09'0 0.0
2019-Apr-16 14:00N 62°44' E 007°09'0 0.0
2019-Apr-16 13:29N 62°44' E 007°09'0 0.0
2019-Apr-16 13:00N 62°44' E 007°09'0 0.0
2019-Apr-16 12:26N 62°44' E 007°09'0 0.0
2019-Apr-16 11:58N 62°44' E 007°09'0 0.0
2019-Apr-16 11:27N 62°44' E 007°09'0 0.0
2019-Apr-16 10:59N 62°44' E 007°09'0 0.0
2019-Apr-16 10:29N 62°44' E 007°09'0 0.0
2019-Apr-16 09:56N 62°44' E 007°09'0 0.0
2019-Apr-16 09:27N 62°44' E 007°09'0 0.0
2019-Apr-16 08:57N 62°44' E 007°09'0 0.0
2019-Apr-16 08:22N 62°44' E 007°09'0 0.0
2019-Apr-16 07:45N 62°44' E 007°09'0 0.0
2019-Apr-16 07:08N 62°44' E 007°09'0 0.0
2019-Apr-16 06:57N 62°44' E 007°09'0 0.0
2019-Apr-16 06:17N 62°44' E 007°09'0 0.0
2019-Apr-16 05:59N 62°44' E 007°09'0 0.0
2019-Apr-16 05:28N 62°44' E 007°09'0 0.0
2019-Apr-16 04:57N 62°44' E 007°09'0 0.0
2019-Apr-16 04:26N 62°44' E 007°09'0 0.0
2019-Apr-16 04:00N 62°44' E 007°09'0 0.0
2019-Apr-16 02:31N 62°44' E 007°09'0 0.0
2019-Apr-16 02:25N 62°44' E 007°09'0 0.0
2019-Apr-16 01:58N 62°44' E 007°09'0 0.0
2019-Apr-16 01:30N 62°44' E 007°09'0 0.0
2019-Apr-16 01:00N 62°44' E 007°09'0 0.0
2019-Apr-16 00:26N 62°44' E 007°09'0 0.0
2019-Apr-15 23:42N 62°44' E 007°09'0 0.0
2019-Apr-15 21:40N 62°44' E 007°09'0 0.0
2019-Apr-15 21:11N 62°44' E 007°09'0 0.0
2019-Apr-15 20:57N 62°44' E 007°09'0 0.0
2019-Apr-15 20:27N 62°44' E 007°09'0 0.0
2019-Apr-15 19:45N 62°44' E 007°09'0 0.0
2019-Apr-15 19:29N 62°44' E 007°09'0 0.0
2019-Apr-15 18:07N 62°44' E 007°09'0 0.0
2019-Apr-15 17:59N 62°44' E 007°09'3 6.3
2019-Apr-15 17:30N 62°43' E 007°03'3 6.9
2019-Apr-15 17:00N 62°45' E 006°56'4 7.6
2019-Apr-15 16:30N 62°46' E 006°48'4 7.7
2019-Apr-15 16:00N 62°46' E 006°40'4 7.6
2019-Apr-15 15:30N 62°47' E 006°31'1 2.7
2019-Apr-15 14:59N 62°47' E 006°28'0 0.2
2019-Apr-15 14:30N 62°47' E 006°28'2 3.9
2019-Apr-15 14:00N 62°46' E 006°31'4 7.3
2019-Apr-15 13:29N 62°43' E 006°37'2 5.1
2019-Apr-15 13:00N 62°42' E 006°42'0 0.0
2019-Apr-15 12:30N 62°42' E 006°42'0 0.0
2019-Apr-15 12:00N 62°42' E 006°42'0 0.0
2019-Apr-15 11:29N 62°42' E 006°42'0 0.0
2019-Apr-15 10:59N 62°42' E 006°42'0 0.0
2019-Apr-15 10:29N 62°42' E 006°42'0 0.0
2019-Apr-15 09:59N 62°42' E 006°42'0 0.0
2019-Apr-15 09:30N 62°42' E 006°42'0 0.0
2019-Apr-15 09:00N 62°42' E 006°42'0 0.0
2019-Apr-15 08:30N 62°42' E 006°42'0 0.0
2019-Apr-15 08:00N 62°42' E 006°42'0 0.0
2019-Apr-15 07:30N 62°42' E 006°42'0 0.0
2019-Apr-15 07:00N 62°42' E 006°42'0 0.0
2019-Apr-15 06:29N 62°42' E 006°42'0 0.0
2019-Apr-15 06:00N 62°42' E 006°42'0 0.0
2019-Apr-15 05:30N 62°42' E 006°42'0 0.0
2019-Apr-15 05:00N 62°42' E 006°42'0 0.0
2019-Apr-15 04:30N 62°42' E 006°42'0 0.0
2019-Apr-15 03:59N 62°42' E 006°42'0 0.0
2019-Apr-15 03:30N 62°42' E 006°42'0 0.0
2019-Apr-15 03:00N 62°42' E 006°42'0 0.0
2019-Apr-15 02:30N 62°42' E 006°42'0 0.0
2019-Apr-15 02:00N 62°42' E 006°42'0 0.0
2019-Apr-15 01:30N 62°42' E 006°42'0 0.0
2019-Apr-15 01:00N 62°42' E 006°42'0 0.0
2019-Apr-15 00:30N 62°42' E 006°42'0 0.0
2019-Apr-15 00:00N 62°42' E 006°42'0 0.0
2019-Apr-14 23:30N 62°42' E 006°42'0 0.0
2019-Apr-14 23:00N 62°42' E 006°42'0 0.0
2019-Apr-14 22:30N 62°42' E 006°42'0 0.0
2019-Apr-14 22:00N 62°42' E 006°42'0 0.0
2019-Apr-14 21:29N 62°42' E 006°42'0 0.0
2019-Apr-14 21:00N 62°42' E 006°42'0 0.0
2019-Apr-14 20:30N 62°42' E 006°42'0 0.0
2019-Apr-14 20:00N 62°42' E 006°42'0 0.0
2019-Apr-14 19:30N 62°42' E 006°42'0 0.0
2019-Apr-14 19:00N 62°42' E 006°42'0 0.0
2019-Apr-14 18:30N 62°42' E 006°42'0 0.0
2019-Apr-14 18:00N 62°42' E 006°42'0 0.0
2019-Apr-14 17:30N 62°42' E 006°42'0 0.0
2019-Apr-14 17:00N 62°42' E 006°42'0 0.0
2019-Apr-14 16:29N 62°42' E 006°42'0 0.0
2019-Apr-14 16:00N 62°42' E 006°42'0 0.0
2019-Apr-14 15:30N 62°42' E 006°42'0 0.0
2019-Apr-14 14:58N 62°42' E 006°42'0 0.0
2019-Apr-14 14:29N 62°42' E 006°42'0 0.0
2019-Apr-14 14:00N 62°42' E 006°42'0 0.0
2019-Apr-14 13:30N 62°42' E 006°42'0 0.0
2019-Apr-14 13:00N 62°42' E 006°42'0 0.0
2019-Apr-14 12:30N 62°42' E 006°42'0 0.0
2019-Apr-14 11:59N 62°42' E 006°42'0 0.0
2019-Apr-14 11:29N 62°42' E 006°42'0 0.0
2019-Apr-14 11:00N 62°42' E 006°42'0 0.0
2019-Apr-14 10:30N 62°42' E 006°42'0 0.1
2019-Apr-14 10:00N 62°42' E 006°42'3 5.3
2019-Apr-14 09:30N 62°44' E 006°39'4 7.4
2019-Apr-14 09:00N 62°48' E 006°42'4 7.1
2019-Apr-14 08:30N 62°51' E 006°46'4 7.3
2019-Apr-14 08:00N 62°53' E 006°52'3 6.8
2019-Apr-14 07:30N 62°56' E 006°57'4 7.1
2019-Apr-14 07:00N 62°59' E 007°02'4 7.3
2019-Apr-14 06:30N 63°01' E 007°08'4 7.4
2019-Apr-14 06:00N 63°02' E 007°15'4 7.3
2019-Apr-14 05:30N 63°04' E 007°23'4 7.0
2019-Apr-14 05:00N 63°06' E 007°29'3 6.9
2019-Apr-14 04:30N 63°08' E 007°35'4 7.1
2019-Apr-14 04:00N 63°10' E 007°42'4 7.2
2019-Apr-14 03:30N 63°12' E 007°49'4 7.3
2019-Apr-14 03:00N 63°13' E 007°56'4 7.2
2019-Apr-14 02:30N 63°15' E 008°03'4 7.5
2019-Apr-14 02:00N 63°17' E 008°10'4 7.1
2019-Apr-14 01:30N 63°19' E 008°16'4 7.2
2019-Apr-14 01:00N 63°22' E 008°22'4 7.5
2019-Apr-14 00:30N 63°24' E 008°29'4 7.9
2019-Apr-14 00:00N 63°25' E 008°37'4 7.9
2019-Apr-13 23:30N 63°27' E 008°46'4 8.0
2019-Apr-13 22:59N 63°28' E 008°54'4 7.9
2019-Apr-13 22:29N 63°29' E 009°03'4 8.0
2019-Apr-13 22:00N 63°31' E 009°10'4 8.1
2019-Apr-13 21:30N 63°33' E 009°18'4 8.0
2019-Apr-13 21:00N 63°35' E 009°26'4 7.5
2019-Apr-13 20:30N 63°39' E 009°28'3 6.7
2019-Apr-13 20:00N 63°42' E 009°30'4 7.3
2019-Apr-13 19:30N 63°46' E 009°33'4 7.3
2019-Apr-13 19:00N 63°49' E 009°36'4 7.1
2019-Apr-13 18:30N 63°52' E 009°41'4 7.3
2019-Apr-13 18:00N 63°53' E 009°49'4 7.5
2019-Apr-13 17:30N 63°56' E 009°54'4 7.5
2019-Apr-13 17:00N 63°60' E 009°57'4 7.3
2019-Apr-13 16:30N 64°03' E 010°02'3 6.1
2019-Apr-13 16:00N 64°06' E 010°01'4 7.2
2019-Apr-13 15:30N 64°09' E 010°06'4 7.2
2019-Apr-13 15:00N 64°12' E 010°10'4 7.3
2019-Apr-13 14:30N 64°14' E 010°16'3 6.4
2019-Apr-13 14:00N 64°17' E 010°20'4 7.4
2019-Apr-13 13:30N 64°21' E 010°22'4 7.5
2019-Apr-13 13:00N 64°24' E 010°26'4 7.4
2019-Apr-13 12:30N 64°28' E 010°28'4 7.5
2019-Apr-13 12:00N 64°30' E 010°34'4 7.4
2019-Apr-13 11:30N 64°33' E 010°38'4 7.8
2019-Apr-13 11:00N 64°37' E 010°43'4 7.5
2019-Apr-13 10:30N 64°40' E 010°48'4 7.3
2019-Apr-13 09:59N 64°43' E 010°54'4 7.4
2019-Apr-13 09:29N 64°45' E 011°00'4 7.5
2019-Apr-13 09:00N 64°48' E 011°06'4 7.6
2019-Apr-13 08:30N 64°51' E 011°12'1 2.4
2019-Apr-13 08:00N 64°52' E 011°14'1 2.1
2019-Apr-13 07:30N 64°52' E 011°16'4 7.5
2019-Apr-13 06:59N 64°55' E 011°23'4 7.3
2019-Apr-13 06:29N 64°57' E 011°29'4 7.3
2019-Apr-13 06:00N 64°59' E 011°36'4 7.1
2019-Apr-13 05:30N 65°02' E 011°42'4 7.4
2019-Apr-13 05:00N 65°05' E 011°46'4 7.4
2019-Apr-13 04:30N 65°08' E 011°49'4 7.5
2019-Apr-13 04:00N 65°12' E 011°52'4 7.3
2019-Apr-13 03:30N 65°15' E 011°56'4 7.4
2019-Apr-13 03:00N 65°19' E 011°60'4 7.2
2019-Apr-13 02:29N 65°22' E 012°04'4 7.4
2019-Apr-13 02:00N 65°25' E 012°08'3 6.7
2019-Apr-13 01:29N 65°28' E 012°12'1 1.2
2019-Apr-13 00:59N 65°28' E 012°13'0 0.0
2019-Apr-13 00:30N 65°28' E 012°13'0 0.0
2019-Apr-13 00:00N 65°28' E 012°13'0 0.0
2019-Apr-12 23:30N 65°28' E 012°13'0 0.0
2019-Apr-12 23:00N 65°28' E 012°13'0 0.0
2019-Apr-12 22:30N 65°28' E 012°13'0 0.0
2019-Apr-12 22:00N 65°28' E 012°13'0 0.0
2019-Apr-12 21:30N 65°28' E 012°13'0 0.0
2019-Apr-12 20:58N 65°28' E 012°13'0 0.0
2019-Apr-12 20:30N 65°28' E 012°13'0 0.0
2019-Apr-12 20:00N 65°28' E 012°13'0 0.0
2019-Apr-12 19:30N 65°28' E 012°13'0 0.0
2019-Apr-12 18:59N 65°28' E 012°13'0 0.0
2019-Apr-12 18:30N 65°28' E 012°13'0 0.0
2019-Apr-12 18:00N 65°28' E 012°13'0 0.0
2019-Apr-12 17:30N 65°28' E 012°13'0 0.0
2019-Apr-12 16:59N 65°28' E 012°13'3 5.9
2019-Apr-12 16:30N 65°31' E 012°12'4 7.5
2019-Apr-12 16:00N 65°35' E 012°14'4 7.5
2019-Apr-12 15:30N 65°39' E 012°15'4 7.3
2019-Apr-12 15:00N 65°42' E 012°17'4 7.5
2019-Apr-12 14:29N 65°46' E 012°19'4 7.5
2019-Apr-12 14:00N 65°50' E 012°21'4 7.1
2019-Apr-12 13:30N 65°53' E 012°22'4 7.3
2019-Apr-12 13:00N 65°57' E 012°25'4 7.5
2019-Apr-12 12:30N 65°59' E 012°31'4 7.2
2019-Apr-12 12:00N 66°02' E 012°38'0 0.5
2019-Apr-12 11:30N 66°01' E 012°38'1 2.4
2019-Apr-12 11:00N 66°02' E 012°35'3 5.7
2019-Apr-12 10:30N 66°02' E 012°28'3 5.2
2019-Apr-12 10:00N 66°01' E 012°22'3 5.2
2019-Apr-12 09:30N 66°00' E 012°16'1 2.5
2019-Apr-12 09:00N 66°02' E 012°15'0 0.0
2019-Apr-12 08:30N 66°02' E 012°15'0 0.0
2019-Apr-12 08:00N 66°02' E 012°15'0 0.0
2019-Apr-12 07:30N 66°02' E 012°15'0 0.0
2019-Apr-12 07:00N 66°02' E 012°15'0 0.0
2019-Apr-12 06:30N 66°02' E 012°15'0 0.0
2019-Apr-12 06:00N 66°02' E 012°15'0 0.0
2019-Apr-12 05:30N 66°02' E 012°15'0 0.0
2019-Apr-12 05:00N 66°02' E 012°15'0 0.0
2019-Apr-12 04:30N 66°02' E 012°15'0 0.0
2019-Apr-12 04:00N 66°02' E 012°15'0 0.0
2019-Apr-12 03:30N 66°02' E 012°15'0 0.0
2019-Apr-12 03:00N 66°02' E 012°15'0 0.0
2019-Apr-12 02:29N 66°02' E 012°15'0 0.0
2019-Apr-12 02:00N 66°02' E 012°15'0 0.0
2019-Apr-12 01:30N 66°02' E 012°15'0 0.0
2019-Apr-12 01:00N 66°02' E 012°15'0 0.0
2019-Apr-12 00:30N 66°02' E 012°15'0 0.0
2019-Apr-12 00:00N 66°02' E 012°15'0 0.0
2019-Apr-11 23:30N 66°02' E 012°15'0 0.0
2019-Apr-11 23:00N 66°02' E 012°15'0 0.0
2019-Apr-11 22:30N 66°02' E 012°15'  
Track history (hours):
 
Tides and Currents Weather Stations Pressure Air Temp Water Temp Dewpoint Dewpoint Depression Visibility Wind Speed Wind Dir Waves Ship Positions

Oceanographic research ship Fangst (Norway)

Detailed information on ship capabilities available from University of Delaware's Ocean Information Center and ARCUS's ALIAS (Arctic Logistics Information and Support) project.

Last reported at 2019-Apr-21 22:30 UTC. Time now 2019-Apr-21 22:41 UTC.
Position N 61°56' E 005°07'.

Length 14 m; draft 3 m.

Type: Fishing. MMSI: 257076840.

Date/timePositionNaut miles runAvg speedWind from/ knotsBaromVisibWave heightAir tempDewpointWater temp
2019-Apr-21 22:30N 61°56' E 005°07'0 0.0
2019-Apr-21 22:00N 61°56' E 005°07'0 0.0
2019-Apr-21 21:30N 61°56' E 005°07'0 0.0
2019-Apr-21 21:00N 61°56' E 005°07'0 0.0
2019-Apr-21 20:30N 61°56' E 005°07'0 0.0
2019-Apr-21 20:00N 61°56' E 005°07'0 0.0
2019-Apr-21 19:30N 61°56' E 005°07'0 0.0
2019-Apr-21 19:00N 61°56' E 005°07'0 0.0
2019-Apr-21 18:30N 61°56' E 005°07'0 0.0
2019-Apr-21 18:00N 61°56' E 005°07'0 0.0
2019-Apr-21 17:30N 61°56' E 005°07'0 0.0
2019-Apr-21 17:00N 61°56' E 005°07'0 0.0
2019-Apr-21 16:30N 61°56' E 005°07'0 0.0
2019-Apr-21 16:00N 61°56' E 005°07'0 0.0
2019-Apr-21 15:29N 61°56' E 005°07'2 4.5
2019-Apr-21 15:00N 61°58' E 005°09'4 7.0
2019-Apr-21 14:29N 62°01' E 005°13'4 7.1
2019-Apr-21 14:00N 62°04' E 005°15'0 0.8
2019-Apr-21 13:30N 62°05' E 005°15'1 3.0
2019-Apr-21 13:00N 62°06' E 005°14'1 2.1
2019-Apr-21 12:30N 62°06' E 005°11'1 1.5
2019-Apr-21 12:00N 62°06' E 005°10'1 2.5
2019-Apr-21 11:30N 62°06' E 005°07'1 2.7
2019-Apr-21 11:00N 62°07' E 005°05'3 5.7
2019-Apr-21 10:30N 62°10' E 005°05'1 2.6
2019-Apr-21 10:00N 62°11' E 005°05'3 5.7
2019-Apr-21 09:30N 62°13' E 005°09'3 6.1
2019-Apr-21 09:00N 62°15' E 005°14'3 5.9
2019-Apr-21 08:30N 62°17' E 005°20'3 6.3
2019-Apr-21 08:00N 62°18' E 005°26'3 6.6
2019-Apr-21 07:29N 62°19' E 005°32'3 5.8
2019-Apr-21 06:59N 62°21' E 005°38'0 0.2
2019-Apr-21 06:30N 62°21' E 005°38'0 0.0
2019-Apr-21 06:00N 62°21' E 005°38'0 0.0
2019-Apr-21 05:30N 62°21' E 005°38'0 0.0
2019-Apr-21 05:00N 62°21' E 005°38'0 0.0
2019-Apr-21 04:30N 62°21' E 005°38'0 0.0
2019-Apr-21 04:00N 62°21' E 005°38'0 0.0
2019-Apr-21 03:30N 62°21' E 005°38'0 0.0
2019-Apr-21 03:00N 62°21' E 005°38'0 0.0
2019-Apr-21 02:30N 62°21' E 005°38'0 0.0
2019-Apr-21 01:59N 62°21' E 005°38'0 0.0
2019-Apr-21 01:30N 62°21' E 005°38'0 0.0
2019-Apr-21 01:00N 62°21' E 005°38'0 0.0
2019-Apr-21 00:30N 62°21' E 005°38'0 0.0
2019-Apr-21 00:00N 62°21' E 005°38'0 0.0
2019-Apr-20 23:30N 62°21' E 005°38'0 0.0
2019-Apr-20 23:00N 62°21' E 005°38'0 0.0
2019-Apr-20 22:30N 62°21' E 005°38'0 0.0
2019-Apr-20 21:59N 62°21' E 005°38'0 0.0
2019-Apr-20 21:30N 62°21' E 005°38'0 0.0
2019-Apr-20 21:00N 62°21' E 005°38'0 0.0
2019-Apr-20 20:30N 62°21' E 005°38'0 0.0
2019-Apr-20 20:00N 62°21' E 005°38'0 0.0
2019-Apr-20 19:30N 62°21' E 005°38'0 0.0
2019-Apr-20 19:00N 62°21' E 005°38'0 0.0
2019-Apr-20 18:30N 62°21' E 005°38'0 0.0
2019-Apr-20 18:00N 62°21' E 005°38'0 0.0
2019-Apr-20 17:30N 62°21' E 005°38'0 0.0
2019-Apr-20 17:00N 62°21' E 005°38'0 0.0
2019-Apr-20 16:30N 62°21' E 005°38'0 0.0
2019-Apr-20 16:00N 62°21' E 005°38'0 0.0
2019-Apr-20 15:30N 62°21' E 005°38'2 3.9
2019-Apr-20 15:00N 62°22' E 005°41'2 4.9
2019-Apr-20 14:30N 62°24' E 005°39'0 0.1
2019-Apr-20 14:00N 62°24' E 005°39'3 5.1
2019-Apr-20 13:30N 62°26' E 005°42'2 4.7
2019-Apr-20 13:00N 62°28' E 005°46'2 4.3
2019-Apr-20 12:30N 62°29' E 005°49'2 4.5
2019-Apr-20 12:00N 62°31' E 005°53'2 4.6
2019-Apr-20 11:30N 62°33' E 005°57'1 1.4
2019-Apr-20 11:00N 62°33' E 005°57'1 2.7
2019-Apr-20 10:30N 62°33' E 005°60'1 2.2
2019-Apr-20 10:00N 62°34' E 005°60'2 3.1
2019-Apr-20 09:30N 62°36' E 006°02'1 1.1
2019-Apr-20 09:00N 62°36' E 006°02'3 5.1
2019-Apr-20 08:30N 62°38' E 006°05'2 3.6
2019-Apr-20 08:00N 62°39' E 006°08'1 1.7
2019-Apr-20 07:30N 62°40' E 006°10'3 5.9
2019-Apr-20 06:59N 62°38' E 006°15'3 6.4
2019-Apr-20 06:30N 62°38' E 006°22'3 6.7
2019-Apr-20 06:00N 62°41' E 006°26'3 6.9
2019-Apr-20 05:30N 62°44' E 006°29'3 6.3
2019-Apr-20 05:00N 62°47' E 006°29'0 0.7
2019-Apr-20 04:30N 62°47' E 006°28'0 0.0
2019-Apr-20 04:00N 62°47' E 006°28'0 0.0
2019-Apr-20 03:30N 62°47' E 006°28'0 0.0
2019-Apr-20 03:00N 62°47' E 006°28'0 0.0
2019-Apr-20 02:30N 62°47' E 006°28'0 0.0
2019-Apr-20 02:00N 62°47' E 006°28'0 0.0
2019-Apr-20 01:30N 62°47' E 006°28'0 0.0
2019-Apr-20 01:00N 62°47' E 006°28'0 0.0
2019-Apr-20 00:30N 62°47' E 006°28'0 0.0
2019-Apr-20 00:00N 62°47' E 006°28'0 0.0
2019-Apr-19 23:30N 62°47' E 006°28'0 0.0
2019-Apr-19 23:00N 62°47' E 006°28'0 0.0
2019-Apr-19 22:30N 62°47' E 006°28'0 0.0
2019-Apr-19 22:00N 62°47' E 006°28'0 0.0
2019-Apr-19 21:30N 62°47' E 006°28'0 0.0
2019-Apr-19 21:00N 62°47' E 006°28'0 0.0
2019-Apr-19 20:30N 62°47' E 006°28'0 0.2
2019-Apr-19 20:01N 62°47' E 006°29'3 6.9
2019-Apr-19 19:30N 62°48' E 006°36'4 7.4
2019-Apr-19 19:00N 62°51' E 006°41'4 7.1
2019-Apr-19 18:30N 62°54' E 006°45'4 7.2
2019-Apr-19 17:58N 62°57' E 006°50'3 6.8
2019-Apr-19 17:30N 62°60' E 006°55'3 6.5
2019-Apr-19 17:00N 63°02' E 007°00'3 6.7
2019-Apr-19 16:30N 63°04' E 007°06'3 6.5
2019-Apr-19 16:00N 63°06' E 007°11'2 3.7
2019-Apr-19 15:30N 63°06' E 007°15'0 0.3
2019-Apr-19 15:00N 63°06' E 007°15'1 2.6
2019-Apr-19 14:30N 63°06' E 007°18'1 1.1
2019-Apr-19 14:00N 63°06' E 007°19'3 6.7
2019-Apr-19 13:30N 63°02' E 007°19'2 4.0
2019-Apr-19 13:00N 63°02' E 007°15'1 2.0
2019-Apr-19 12:30N 63°01' E 007°13'3 6.9
2019-Apr-19 12:00N 63°00' E 007°06'4 7.1
2019-Apr-19 11:30N 62°58' E 006°60'4 7.0
2019-Apr-19 11:00N 62°55' E 006°55'3 6.1
2019-Apr-19 10:30N 62°52' E 006°57'4 7.1
2019-Apr-19 10:00N 62°49' E 006°58'5 7.5
2019-Apr-19 09:17N 62°43' E 006°59'2 7.4
2019-Apr-19 09:00N 62°43' E 007°03'3 5.4
2019-Apr-19 08:30N 62°44' E 007°09'0 0.0
2019-Apr-19 07:35N 62°44' E 007°09'0 0.0
2019-Apr-19 06:39N 62°44' E 007°09'0 0.0
2019-Apr-19 06:27N 62°44' E 007°09'0 0.0
2019-Apr-19 05:58N 62°44' E 007°09'0 0.0
2019-Apr-19 05:26N 62°44' E 007°09'0 0.0
2019-Apr-19 04:59N 62°44' E 007°09'0 0.0
2019-Apr-19 04:30N 62°44' E 007°09'0 0.0
2019-Apr-19 03:59N 62°44' E 007°09'0 0.0
2019-Apr-19 03:29N 62°44' E 007°09'0 0.0
2019-Apr-19 02:54N 62°44' E 007°09'0 0.0
2019-Apr-19 02:30N 62°44' E 007°09'0 0.0
2019-Apr-19 02:00N 62°44' E 007°09'0 0.0
2019-Apr-19 01:30N 62°44' E 007°09'0 0.0
2019-Apr-19 01:00N 62°44' E 007°09'0 0.0
2019-Apr-19 00:27N 62°44' E 007°09'0 0.0
2019-Apr-18 18:49N 62°44' E 007°09'0 0.0
2019-Apr-18 18:06N 62°44' E 007°09'0 0.0
2019-Apr-18 17:38N 62°44' E 007°09'0 0.0
2019-Apr-18 17:18N 62°44' E 007°09'0 0.0
2019-Apr-18 16:54N 62°44' E 007°09'0 0.0
2019-Apr-18 16:28N 62°44' E 007°09'0 0.0
2019-Apr-18 15:59N 62°44' E 007°09'0 0.0
2019-Apr-18 15:29N 62°44' E 007°09'0 0.0
2019-Apr-18 14:58N 62°44' E 007°09'0 0.0
2019-Apr-18 14:30N 62°44' E 007°09'0 0.0
2019-Apr-18 13:56N 62°44' E 007°09'0 0.0
2019-Apr-18 13:25N 62°44' E 007°09'0 0.0
2019-Apr-18 12:49N 62°44' E 007°09'0 0.0
2019-Apr-18 12:07N 62°44' E 007°09'0 0.0
2019-Apr-18 11:57N 62°44' E 007°09'0 0.0
2019-Apr-18 11:28N 62°44' E 007°09'0 0.0
2019-Apr-18 09:41N 62°44' E 007°09'0 0.0
2019-Apr-18 09:29N 62°44' E 007°09'0 0.0
2019-Apr-18 08:49N 62°44' E 007°09'0 0.0
2019-Apr-18 08:22N 62°44' E 007°09'0 0.0
2019-Apr-18 07:45N 62°44' E 007°09'0 0.0
2019-Apr-18 07:20N 62°44' E 007°09'0 0.0
2019-Apr-18 06:56N 62°44' E 007°09'0 0.0
2019-Apr-18 06:30N 62°44' E 007°09'0 0.0
2019-Apr-18 05:59N 62°44' E 007°09'0 0.0
2019-Apr-18 05:29N 62°44' E 007°09'0 0.0
2019-Apr-18 04:58N 62°44' E 007°09'0 0.0
2019-Apr-18 04:30N 62°44' E 007°09'0 0.0
2019-Apr-18 04:00N 62°44' E 007°09'0 0.0
2019-Apr-18 03:29N 62°44' E 007°09'0 0.0
2019-Apr-18 03:00N 62°44' E 007°09'0 0.0
2019-Apr-18 02:29N 62°44' E 007°09'0 0.0
2019-Apr-18 02:00N 62°44' E 007°09'0 0.0
2019-Apr-18 01:30N 62°44' E 007°09'0 0.0
2019-Apr-18 00:59N 62°44' E 007°09'0 0.0
2019-Apr-18 00:28N 62°44' E 007°09'0 0.0
2019-Apr-18 00:00N 62°44' E 007°09'0 0.0
2019-Apr-17 23:28N 62°44' E 007°09'0 0.0
2019-Apr-17 22:43N 62°44' E 007°09'0 0.0
2019-Apr-17 22:29N 62°44' E 007°09'0 0.0
2019-Apr-17 22:00N 62°44' E 007°09'0 0.0
2019-Apr-17 21:23N 62°44' E 007°09'0 0.0
2019-Apr-17 20:53N 62°44' E 007°09'0 0.0
2019-Apr-17 20:29N 62°44' E 007°09'0 0.0
2019-Apr-17 19:58N 62°44' E 007°09'0 0.0
2019-Apr-17 19:24N 62°44' E 007°09'0 0.0
2019-Apr-17 19:00N 62°44' E 007°09'0 0.0
2019-Apr-17 18:29N 62°44' E 007°09'0 0.0
2019-Apr-17 18:00N 62°44' E 007°09'0 0.0
2019-Apr-17 17:29N 62°44' E 007°09'0 0.0
2019-Apr-17 16:58N 62°44' E 007°09'0 0.0
2019-Apr-17 16:30N 62°44' E 007°09'0 0.0
2019-Apr-17 16:00N 62°44' E 007°09'0 0.0
2019-Apr-17 15:30N 62°44' E 007°09'0 0.0
2019-Apr-17 14:56N 62°44' E 007°09'0 0.0
2019-Apr-17 14:29N 62°44' E 007°09'0 0.0
2019-Apr-17 14:00N 62°44' E 007°09'0 0.0
2019-Apr-17 13:29N 62°44' E 007°09'0 0.0
2019-Apr-17 12:57N 62°44' E 007°09'0 0.0
2019-Apr-17 12:22N 62°44' E 007°09'0 0.0
2019-Apr-17 11:53N 62°44' E 007°09'0 0.0
2019-Apr-17 11:22N 62°44' E 007°09'0 0.0
2019-Apr-17 11:00N 62°44' E 007°09'0 0.0
2019-Apr-17 10:09N 62°44' E 007°09'0 0.0
2019-Apr-17 09:58N 62°44' E 007°09'0 0.0
2019-Apr-17 09:19N 62°44' E 007°09'0 0.0
2019-Apr-17 08:54N 62°44' E 007°09'0 0.0
2019-Apr-17 07:51N 62°44' E 007°09'0 0.0
2019-Apr-17 06:58N 62°44' E 007°09'0 0.0
2019-Apr-17 06:25N 62°44' E 007°09'0 0.0
2019-Apr-17 05:52N 62°44' E 007°09'0 0.0
2019-Apr-17 05:29N 62°44' E 007°09'0 0.0
2019-Apr-17 04:53N 62°44' E 007°09'0 0.0
2019-Apr-17 04:11N 62°44' E 007°09'0 0.0
2019-Apr-17 03:48N 62°44' E 007°09'0 0.0
2019-Apr-17 03:07N 62°44' E 007°09'0 0.0
2019-Apr-17 02:43N 62°44' E 007°09'0 0.0
2019-Apr-17 02:28N 62°44' E 007°09'0 0.0
2019-Apr-17 01:57N 62°44' E 007°09'0 0.0
2019-Apr-17 01:29N 62°44' E 007°09'0 0.0
2019-Apr-17 00:58N 62°44' E 007°09'0 0.0
2019-Apr-17 00:17N 62°44' E 007°09'0 0.0
2019-Apr-17 00:00N 62°44' E 007°09'0 0.0
2019-Apr-16 23:16N 62°44' E 007°09'0 0.0
2019-Apr-16 22:54N 62°44' E 007°09'0 0.0
2019-Apr-16 19:34N 62°44' E 007°09'0 0.0
2019-Apr-16 17:23N 62°44' E 007°09'0 0.0
2019-Apr-16 17:00N 62°44' E 007°09'0 0.0
2019-Apr-16 16:24N 62°44' E 007°09'0 0.0
2019-Apr-16 15:58N 62°44' E 007°09'0 0.0
2019-Apr-16 15:29N 62°44' E 007°09'0 0.0
2019-Apr-16 14:58N 62°44' E 007°09'0 0.0
2019-Apr-16 14:30N 62°44' E 007°09'0 0.0
2019-Apr-16 14:00N 62°44' E 007°09'0 0.0
2019-Apr-16 13:29N 62°44' E 007°09'0 0.0
2019-Apr-16 13:00N 62°44' E 007°09'0 0.0
2019-Apr-16 12:26N 62°44' E 007°09'0 0.0
2019-Apr-16 11:58N 62°44' E 007°09'0 0.0
2019-Apr-16 11:27N 62°44' E 007°09'0 0.0
2019-Apr-16 10:59N 62°44' E 007°09'0 0.0
2019-Apr-16 10:29N 62°44' E 007°09'0 0.0
2019-Apr-16 09:56N 62°44' E 007°09'0 0.0
2019-Apr-16 09:27N 62°44' E 007°09'0 0.0
2019-Apr-16 08:57N 62°44' E 007°09'0 0.0
2019-Apr-16 08:22N 62°44' E 007°09'0 0.0
2019-Apr-16 07:45N 62°44' E 007°09'0 0.0
2019-Apr-16 07:08N 62°44' E 007°09'0 0.0
2019-Apr-16 06:57N 62°44' E 007°09'0 0.0
2019-Apr-16 06:17N 62°44' E 007°09'0 0.0
2019-Apr-16 05:59N 62°44' E 007°09'0 0.0
2019-Apr-16 05:28N 62°44' E 007°09'0 0.0
2019-Apr-16 04:57N 62°44' E 007°09'0 0.0
2019-Apr-16 04:26N 62°44' E 007°09'0 0.0
2019-Apr-16 04:00N 62°44' E 007°09'0 0.0
2019-Apr-16 02:31N 62°44' E 007°09'0 0.0
2019-Apr-16 02:25N 62°44' E 007°09'0 0.0
2019-Apr-16 01:58N 62°44' E 007°09'0 0.0
2019-Apr-16 01:30N 62°44' E 007°09'0 0.0
2019-Apr-16 01:00N 62°44' E 007°09'0 0.0
2019-Apr-16 00:26N 62°44' E 007°09'0 0.0
2019-Apr-15 23:42N 62°44' E 007°09'0 0.0
2019-Apr-15 21:40N 62°44' E 007°09'0 0.0
2019-Apr-15 21:11N 62°44' E 007°09'0 0.0
2019-Apr-15 20:57N 62°44' E 007°09'0 0.0
2019-Apr-15 20:27N 62°44' E 007°09'0 0.0
2019-Apr-15 19:45N 62°44' E 007°09'0 0.0
2019-Apr-15 19:29N 62°44' E 007°09'0 0.0
2019-Apr-15 18:07N 62°44' E 007°09'0 0.0
2019-Apr-15 17:59N 62°44' E 007°09'3 6.3
2019-Apr-15 17:30N 62°43' E 007°03'3 6.9
2019-Apr-15 17:00N 62°45' E 006°56'4 7.6
2019-Apr-15 16:30N 62°46' E 006°48'4 7.7
2019-Apr-15 16:00N 62°46' E 006°40'4 7.6
2019-Apr-15 15:30N 62°47' E 006°31'1 2.7
2019-Apr-15 14:59N 62°47' E 006°28'0 0.2
2019-Apr-15 14:30N 62°47' E 006°28'2 3.9
2019-Apr-15 14:00N 62°46' E 006°31'4 7.3
2019-Apr-15 13:29N 62°43' E 006°37'2 5.1
2019-Apr-15 13:00N 62°42' E 006°42'0 0.0
2019-Apr-15 12:30N 62°42' E 006°42'0 0.0
2019-Apr-15 12:00N 62°42' E 006°42'0 0.0
2019-Apr-15 11:29N 62°42' E 006°42'0 0.0
2019-Apr-15 10:59N 62°42' E 006°42'0 0.0
2019-Apr-15 10:29N 62°42' E 006°42'0 0.0
2019-Apr-15 09:59N 62°42' E 006°42'0 0.0
2019-Apr-15 09:30N 62°42' E 006°42'0 0.0
2019-Apr-15 09:00N 62°42' E 006°42'0 0.0
2019-Apr-15 08:30N 62°42' E 006°42'0 0.0
2019-Apr-15 08:00N 62°42' E 006°42'0 0.0
2019-Apr-15 07:30N 62°42' E 006°42'0 0.0
2019-Apr-15 07:00N 62°42' E 006°42'0 0.0
2019-Apr-15 06:29N 62°42' E 006°42'0 0.0
2019-Apr-15 06:00N 62°42' E 006°42'0 0.0
2019-Apr-15 05:30N 62°42' E 006°42'0 0.0
2019-Apr-15 05:00N 62°42' E 006°42'0 0.0
2019-Apr-15 04:30N 62°42' E 006°42'0 0.0
2019-Apr-15 03:59N 62°42' E 006°42'0 0.0
2019-Apr-15 03:30N 62°42' E 006°42'0 0.0
2019-Apr-15 03:00N 62°42' E 006°42'0 0.0
2019-Apr-15 02:30N 62°42' E 006°42'0 0.0
2019-Apr-15 02:00N 62°42' E 006°42'0 0.0
2019-Apr-15 01:30N 62°42' E 006°42'0 0.0
2019-Apr-15 01:00N 62°42' E 006°42'0 0.0
2019-Apr-15 00:30N 62°42' E 006°42'0 0.0
2019-Apr-15 00:00N 62°42' E 006°42'0 0.0
2019-Apr-14 23:30N 62°42' E 006°42'0 0.0
2019-Apr-14 23:00N 62°42' E 006°42'0 0.0
2019-Apr-14 22:30N 62°42' E 006°42'0 0.0
2019-Apr-14 22:00N 62°42' E 006°42'0 0.0
2019-Apr-14 21:29N 62°42' E 006°42'0 0.0
2019-Apr-14 21:00N 62°42' E 006°42'0 0.0
2019-Apr-14 20:30N 62°42' E 006°42'0 0.0
2019-Apr-14 20:00N 62°42' E 006°42'0 0.0
2019-Apr-14 19:30N 62°42' E 006°42'0 0.0
2019-Apr-14 19:00N 62°42' E 006°42'0 0.0
2019-Apr-14 18:30N 62°42' E 006°42'0 0.0
2019-Apr-14 18:00N 62°42' E 006°42'0 0.0
2019-Apr-14 17:30N 62°42' E 006°42'0 0.0
2019-Apr-14 17:00N 62°42' E 006°42'0 0.0
2019-Apr-14 16:29N 62°42' E 006°42'0 0.0
2019-Apr-14 16:00N 62°42' E 006°42'0 0.0
2019-Apr-14 15:30N 62°42' E 006°42'0 0.0
2019-Apr-14 14:58N 62°42' E 006°42'0 0.0
2019-Apr-14 14:29N 62°42' E 006°42'0 0.0
2019-Apr-14 14:00N 62°42' E 006°42'0 0.0
2019-Apr-14 13:30N 62°42' E 006°42'0 0.0
2019-Apr-14 13:00N 62°42' E 006°42'0 0.0
2019-Apr-14 12:30N 62°42' E 006°42'0 0.0
2019-Apr-14 11:59N 62°42' E 006°42'0 0.0
2019-Apr-14 11:29N 62°42' E 006°42'0 0.0
2019-Apr-14 11:00N 62°42' E 006°42'0 0.0
2019-Apr-14 10:30N 62°42' E 006°42'0 0.1
2019-Apr-14 10:00N 62°42' E 006°42'3 5.3
2019-Apr-14 09:30N 62°44' E 006°39'4 7.4
2019-Apr-14 09:00N 62°48' E 006°42'4 7.1
2019-Apr-14 08:30N 62°51' E 006°46'4 7.3
2019-Apr-14 08:00N 62°53' E 006°52'3 6.8
2019-Apr-14 07:30N 62°56' E 006°57'4 7.1
2019-Apr-14 07:00N 62°59' E 007°02'4 7.3
2019-Apr-14 06:30N 63°01' E 007°08'4 7.4
2019-Apr-14 06:00N 63°02' E 007°15'4 7.3
2019-Apr-14 05:30N 63°04' E 007°23'4 7.0
2019-Apr-14 05:00N 63°06' E 007°29'3 6.9
2019-Apr-14 04:30N 63°08' E 007°35'4 7.1
2019-Apr-14 04:00N 63°10' E 007°42'4 7.2
2019-Apr-14 03:30N 63°12' E 007°49'4 7.3
2019-Apr-14 03:00N 63°13' E 007°56'4 7.2
2019-Apr-14 02:30N 63°15' E 008°03'4 7.5
2019-Apr-14 02:00N 63°17' E 008°10'4 7.1
2019-Apr-14 01:30N 63°19' E 008°16'4 7.2
2019-Apr-14 01:00N 63°22' E 008°22'4 7.5
2019-Apr-14 00:30N 63°24' E 008°29'4 7.9
2019-Apr-14 00:00N 63°25' E 008°37'4 7.9
2019-Apr-13 23:30N 63°27' E 008°46'4 8.0
2019-Apr-13 22:59N 63°28' E 008°54'4 7.9
2019-Apr-13 22:29N 63°29' E 009°03'4 8.0
2019-Apr-13 22:00N 63°31' E 009°10'4 8.1
2019-Apr-13 21:30N 63°33' E 009°18'4 8.0
2019-Apr-13 21:00N 63°35' E 009°26'4 7.5
2019-Apr-13 20:30N 63°39' E 009°28'3 6.7
2019-Apr-13 20:00N 63°42' E 009°30'4 7.3
2019-Apr-13 19:30N 63°46' E 009°33'4 7.3
2019-Apr-13 19:00N 63°49' E 009°36'4 7.1
2019-Apr-13 18:30N 63°52' E 009°41'4 7.3
2019-Apr-13 18:00N 63°53' E 009°49'4 7.5
2019-Apr-13 17:30N 63°56' E 009°54'4 7.5
2019-Apr-13 17:00N 63°60' E 009°57'4 7.3
2019-Apr-13 16:30N 64°03' E 010°02'3 6.1
2019-Apr-13 16:00N 64°06' E 010°01'4 7.2
2019-Apr-13 15:30N 64°09' E 010°06'4 7.2
2019-Apr-13 15:00N 64°12' E 010°10'4 7.3
2019-Apr-13 14:30N 64°14' E 010°16'3 6.4
2019-Apr-13 14:00N 64°17' E 010°20'4 7.4
2019-Apr-13 13:30N 64°21' E 010°22'4 7.5
2019-Apr-13 13:00N 64°24' E 010°26'4 7.4
2019-Apr-13 12:30N 64°28' E 010°28'4 7.5
2019-Apr-13 12:00N 64°30' E 010°34'4 7.4
2019-Apr-13 11:30N 64°33' E 010°38'4 7.8
2019-Apr-13 11:00N 64°37' E 010°43'4 7.5
2019-Apr-13 10:30N 64°40' E 010°48'4 7.3
2019-Apr-13 09:59N 64°43' E 010°54'4 7.4
2019-Apr-13 09:29N 64°45' E 011°00'4 7.5
2019-Apr-13 09:00N 64°48' E 011°06'4 7.6
2019-Apr-13 08:30N 64°51' E 011°12'1 2.4
2019-Apr-13 08:00N 64°52' E 011°14'1 2.1
2019-Apr-13 07:30N 64°52' E 011°16'4 7.5
2019-Apr-13 06:59N 64°55' E 011°23'4 7.3
2019-Apr-13 06:29N 64°57' E 011°29'4 7.3
2019-Apr-13 06:00N 64°59' E 011°36'4 7.1
2019-Apr-13 05:30N 65°02' E 011°42'4 7.4
2019-Apr-13 05:00N 65°05' E 011°46'4 7.4
2019-Apr-13 04:30N 65°08' E 011°49'4 7.5
2019-Apr-13 04:00N 65°12' E 011°52'4 7.3
2019-Apr-13 03:30N 65°15' E 011°56'4 7.4
2019-Apr-13 03:00N 65°19' E 011°60'4 7.2
2019-Apr-13 02:29N 65°22' E 012°04'4 7.4
2019-Apr-13 02:00N 65°25' E 012°08'3 6.7
2019-Apr-13 01:29N 65°28' E 012°12'1 1.2
2019-Apr-13 00:59N 65°28' E 012°13'0 0.0
2019-Apr-13 00:30N 65°28' E 012°13'0 0.0
2019-Apr-13 00:00N 65°28' E 012°13'0 0.0
2019-Apr-12 23:30N 65°28' E 012°13'0 0.0
2019-Apr-12 23:00N 65°28' E 012°13'0 0.0
2019-Apr-12 22:30N 65°28' E 012°13'0 0.0
2019-Apr-12 22:00N 65°28' E 012°13'0 0.0
2019-Apr-12 21:30N 65°28' E 012°13'0 0.0
2019-Apr-12 20:58N 65°28' E 012°13'0 0.0
2019-Apr-12 20:30N 65°28' E 012°13'0 0.0
2019-Apr-12 20:00N 65°28' E 012°13'0 0.0
2019-Apr-12 19:30N 65°28' E 012°13'0 0.0
2019-Apr-12 18:59N 65°28' E 012°13'0 0.0
2019-Apr-12 18:30N 65°28' E 012°13'0 0.0
2019-Apr-12 18:00N 65°28' E 012°13'0 0.0
2019-Apr-12 17:30N 65°28' E 012°13'0 0.0
2019-Apr-12 16:59N 65°28' E 012°13'3 5.9
2019-Apr-12 16:30N 65°31' E 012°12'4 7.5
2019-Apr-12 16:00N 65°35' E 012°14'4 7.5
2019-Apr-12 15:30N 65°39' E 012°15'4 7.3
2019-Apr-12 15:00N 65°42' E 012°17'4 7.5
2019-Apr-12 14:29N 65°46' E 012°19'4 7.5
2019-Apr-12 14:00N 65°50' E 012°21'4 7.1
2019-Apr-12 13:30N 65°53' E 012°22'4 7.3
2019-Apr-12 13:00N 65°57' E 012°25'4 7.5
2019-Apr-12 12:30N 65°59' E 012°31'4 7.2
2019-Apr-12 12:00N 66°02' E 012°38'0 0.5
2019-Apr-12 11:30N 66°01' E 012°38'1 2.4
2019-Apr-12 11:00N 66°02' E 012°35'3 5.7
2019-Apr-12 10:30N 66°02' E 012°28'3 5.2
2019-Apr-12 10:00N 66°01' E 012°22'3 5.2
2019-Apr-12 09:30N 66°00' E 012°16'1 2.5
2019-Apr-12 09:00N 66°02' E 012°15'0 0.0
2019-Apr-12 08:30N 66°02' E 012°15'0 0.0
2019-Apr-12 08:00N 66°02' E 012°15'0 0.0
2019-Apr-12 07:30N 66°02' E 012°15'0 0.0
2019-Apr-12 07:00N 66°02' E 012°15'0 0.0
2019-Apr-12 06:30N 66°02' E 012°15'0 0.0
2019-Apr-12 06:00N 66°02' E 012°15'0 0.0
2019-Apr-12 05:30N 66°02' E 012°15'0 0.0
2019-Apr-12 05:00N 66°02' E 012°15'0 0.0
2019-Apr-12 04:30N 66°02' E 012°15'0 0.0
2019-Apr-12 04:00N 66°02' E 012°15'0 0.0
2019-Apr-12 03:30N 66°02' E 012°15'0 0.0
2019-Apr-12 03:00N 66°02' E 012°15'0 0.0
2019-Apr-12 02:29N 66°02' E 012°15'0 0.0
2019-Apr-12 02:00N 66°02' E 012°15'0 0.0
2019-Apr-12 01:30N 66°02' E 012°15'0 0.0
2019-Apr-12 01:00N 66°02' E 012°15'0 0.0
2019-Apr-12 00:30N 66°02' E 012°15'0 0.0
2019-Apr-12 00:00N 66°02' E 012°15'0 0.0
2019-Apr-11 23:30N 66°02' E 012°15'0 0.0
2019-Apr-11 23:00N 66°02' E 012°15'0 0.0
2019-Apr-11 22:30N 66°02' E 012°15'  

Dump ship's entire track history